Time;durP1;ratioP1;P1;durP2;ratioP2;P2;SDS_P1;SDS_P2;PMS_P1;PMS_P2;Temp;Humidity;BMP_temperature;BMP_pressure;BME280_temperature;BME280_humidity;BME280_pressure;Samples;Min_cycle;Max_cycle;Signal;HPM_P1;HPM_P2
2021/07/27 00:01:13;;;;;;;40.67;30.27;;;16.90;89.30;;;;;;5015158;28;20030;-72
2021/07/27 00:03:39;;;;;;;37.85;30.25;;;16.90;89.20;;;;;;5020978;28;20496;-75
2021/07/27 00:06:06;;;;;;;43.65;30.95;;;16.80;89.30;;;;;;5021195;28;20450;-73
2021/07/27 00:08:34;;;;;;;38.55;28.70;;;16.90;89.30;;;;;;5031510;28;20029;-73
2021/07/27 00:11:01;;;;;;;41.25;29.50;;;16.80;89.30;;;;;;5021620;28;20032;-73
2021/07/27 00:13:26;;;;;;;41.00;29.80;;;16.80;89.30;;;;;;5035066;28;20057;-73
2021/07/27 00:15:52;;;;;;;41.33;30.30;;;16.80;89.20;;;;;;5026786;28;20076;-74
2021/07/27 00:18:18;;;;;;;39.15;29.55;;;16.80;89.30;;;;;;5027062;28;20079;-76
2021/07/27 00:20:45;;;;;;;38.22;29.35;;;16.70;89.30;;;;;;5031287;28;20025;-73
2021/07/27 00:23:10;;;;;;;42.83;31.15;;;16.70;89.30;;;;;;5029776;28;20113;-73
2021/07/27 00:25:38;;;;;;;39.30;29.20;;;16.70;89.40;;;;;;5029780;28;20396;-72
2021/07/27 00:28:04;;;;;;;37.80;29.13;;;16.60;89.50;;;;;;5038462;28;20041;-75
2021/07/27 00:30:30;;;;;;;37.88;29.67;;;16.60;89.50;;;;;;5030132;28;20033;-74
2021/07/27 00:32:56;;;;;;;43.38;30.27;;;16.60;89.50;;;;;;5034684;28;20044;-74
2021/07/27 00:35:22;;;;;;;40.50;30.77;;;16.60;89.50;;;;;;5025801;28;20069;-73
2021/07/27 00:37:57;;;;;;;41.03;29.27;;;16.60;89.60;;;;;;5022040;28;20123;-76
2021/07/27 00:40:23;;;;;;;36.33;28.77;;;16.60;89.60;;;;;;5027256;28;20980;-72
2021/07/27 00:42:49;;;;;;;35.03;28.05;;;16.60;89.60;;;;;;5025269;28;20112;-72
2021/07/27 00:45:15;;;;;;;38.08;30.33;;;16.50;89.50;;;;;;5014479;28;20465;-74
2021/07/27 00:47:41;;;;;;;39.50;29.40;;;16.50;89.60;;;;;;5007041;28;20038;-73
2021/07/27 00:50:09;;;;;;;35.42;29.20;;;16.50;89.60;;;;;;4996116;28;20046;-75
2021/07/27 00:52:36;;;;;;;38.03;30.15;;;16.50;89.70;;;;;;5022734;28;20030;-73
2021/07/27 00:55:03;;;;;;;41.20;29.38;;;16.50;89.60;;;;;;5008115;28;20049;-72
2021/07/27 00:57:30;;;;;;;34.80;27.70;;;16.50;89.60;;;;;;5019669;28;20064;-72
2021/07/27 00:59:57;;;;;;;43.38;31.33;;;16.50;89.60;;;;;;5015540;28;20034;-72
2021/07/27 01:02:23;;;;;;;40.50;30.20;;;16.40;89.60;;;;;;5012577;28;20034;-71
2021/07/27 01:04:49;;;;;;;39.70;29.45;;;16.40;89.70;;;;;;5018213;28;20044;-73
2021/07/27 01:07:15;;;;;;;41.05;30.90;;;16.50;89.60;;;;;;5011682;28;20050;-74
2021/07/27 01:09:41;;;;;;;38.33;29.20;;;16.40;89.50;;;;;;5027895;28;20383;-73
2021/07/27 01:12:07;;;;;;;44.00;29.33;;;16.40;89.60;;;;;;5026931;28;20033;-72
2021/07/27 01:14:32;;;;;;;40.28;29.13;;;16.40;89.50;;;;;;5033136;28;20033;-79
2021/07/27 01:16:59;;;;;;;40.63;30.13;;;16.40;89.60;;;;;;5030080;28;20535;-72
2021/07/27 01:43:40;;;;;;;39.22;29.15;;;16.30;89.70;;;;;;5027468;28;20037;-72
2021/07/27 01:46:05;;;;;;;38.67;29.88;;;16.30;89.80;;;;;;5031615;28;20103;-81
2021/07/27 01:48:31;;;;;;;40.20;29.83;;;16.20;89.90;;;;;;5025585;28;20033;-74
2021/07/27 01:51:00;;;;;;;34.22;27.98;;;16.20;89.90;;;;;;5040167;28;20079;-73
2021/07/27 01:53:44;;;;;;;38.03;29.52;;;16.20;90.00;;;;;;5017168;28;20053;-77
2021/07/27 01:56:10;;;;;;;35.00;27.73;;;16.20;90.00;;;;;;5000713;28;20101;-74
2021/07/27 01:58:36;;;;;;;37.72;28.70;;;16.20;90.10;;;;;;5008643;28;20037;-73
2021/07/27 02:01:01;;;;;;;37.60;29.25;;;16.20;90.00;;;;;;5012979;28;20553;-74
2021/07/27 02:03:27;;;;;;;37.90;28.15;;;16.20;89.90;;;;;;5007013;28;20398;-74
2021/07/27 02:05:52;;;;;;;36.55;27.95;;;16.20;90.00;;;;;;5010070;28;20089;-72
2021/07/27 02:08:18;;;;;;;35.38;28.27;;;16.10;89.90;;;;;;5004140;28;20500;-76
2021/07/27 02:10:48;;;;;;;41.65;30.60;;;16.10;90.10;;;;;;5010162;28;20122;-72
2021/07/27 02:13:16;;;;;;;43.78;30.10;;;16.10;90.00;;;;;;5022247;28;20177;-72
2021/07/27 02:15:44;;;;;;;35.35;28.67;;;16.10;90.10;;;;;;5020787;28;20091;-73
2021/07/27 02:18:10;;;;;;;41.60;29.25;;;16.10;90.30;;;;;;5029077;28;20040;-74
2021/07/27 02:20:42;;;;;;;38.75;29.33;;;16.10;90.30;;;;;;5025476;28;20038;-78
2021/07/27 02:23:08;;;;;;;35.38;27.48;;;16.10;90.40;;;;;;5026822;28;20053;-76
2021/07/27 02:25:34;;;;;;;38.25;28.17;;;16.20;90.40;;;;;;5027386;28;20041;-73
2021/07/27 02:28:00;;;;;;;41.92;29.95;;;16.10;90.20;;;;;;5026441;28;20541;-73
2021/07/27 02:30:32;;;;;;;37.00;28.15;;;16.10;90.30;;;;;;5024270;28;20041;-73
2021/07/27 02:32:58;;;;;;;36.70;29.05;;;16.20;90.30;;;;;;5027251;28;20033;-77
2021/07/27 02:35:36;;;;;;;37.35;28.13;;;16.20;90.20;;;;;;5028719;28;20041;-73
2021/07/27 02:38:02;;;;;;;36.03;27.52;;;16.10;90.30;;;;;;5026409;28;20089;-76
2021/07/27 02:40:28;;;;;;;38.70;29.02;;;16.10;90.30;;;;;;5028101;28;20439;-74
2021/07/27 02:42:53;;;;;;;42.13;27.92;;;16.20;90.30;;;;;;5025772;28;20390;-78
2021/07/27 02:45:26;;;;;;;38.20;29.48;;;16.20;90.40;;;;;;5024202;28;20073;-73
2021/07/27 02:47:52;;;;;;;38.38;28.52;;;16.20;90.30;;;;;;5031609;28;20035;-72
2021/07/27 02:50:18;;;;;;;39.00;29.38;;;16.20;90.30;;;;;;5011027;28;20038;-72
2021/07/27 02:52:43;;;;;;;34.33;26.25;;;16.30;90.30;;;;;;4995920;28;20092;-75
2021/07/27 02:55:12;;;;;;;38.25;27.65;;;16.30;90.10;;;;;;5006702;28;20427;-81
2021/07/27 02:57:39;;;;;;;41.08;28.38;;;16.30;90.10;;;;;;5032929;28;20039;-72
2021/07/27 03:00:05;;;;;;;41.00;29.20;;;16.30;90.10;;;;;;5026535;28;20053;-75
2021/07/27 03:02:35;;;;;;;37.85;28.65;;;16.30;90.10;;;;;;4995013;28;20041;-72
2021/07/27 03:05:00;;;;;;;36.78;27.40;;;16.20;90.10;;;;;;5005903;28;20034;-76
2021/07/27 03:07:34;;;;;;;39.63;28.17;;;16.30;90.20;;;;;;5022782;28;20113;-71
2021/07/27 03:12:55;;;;;;;37.83;29.17;;;16.30;90.20;;;;;;5023873;28;20036;-72
2021/07/27 03:15:29;;;;;;;39.55;26.85;;;16.30;90.30;;;;;;5019445;28;20128;-72
2021/07/27 03:17:59;;;;;;;34.72;26.25;;;16.20;90.20;;;;;;5024050;28;20045;-72
2021/07/27 03:20:27;;;;;;;33.85;26.08;;;16.30;90.30;;;;;;5030311;28;20041;-73
2021/07/27 03:22:54;;;;;;;35.05;25.77;;;16.30;90.20;;;;;;5031669;28;20041;-72
2021/07/27 03:25:20;;;;;;;38.25;26.98;;;16.30;90.30;;;;;;5029171;28;20041;-72
2021/07/27 03:27:48;;;;;;;39.33;27.27;;;16.20;90.30;;;;;;5028133;28;20072;-74
2021/07/27 03:30:14;;;;;;;38.42;28.05;;;16.20;90.30;;;;;;5026796;28;20117;-72
2021/07/27 03:32:41;;;;;;;34.45;25.95;;;16.20;90.40;;;;;;5026571;28;20453;-71
2021/07/27 03:35:07;;;;;;;34.20;26.98;;;16.30;90.40;;;;;;5024052;28;20045;-75
2021/07/27 03:37:33;;;;;;;34.55;25.92;;;16.20;90.40;;;;;;5002690;28;20029;-73
2021/07/27 03:40:00;;;;;;;34.92;25.95;;;16.20;90.40;;;;;;5019418;28;20429;-72
2021/07/27 03:42:25;;;;;;;33.63;26.40;;;16.20;90.30;;;;;;5003251;28;20064;-73
2021/07/27 03:44:55;;;;;;;39.03;29.40;;;16.20;90.20;;;;;;4999580;28;20501;-72
2021/07/27 03:47:21;;;;;;;32.33;27.02;;;16.20;90.30;;;;;;5002075;28;20500;-72
2021/07/27 03:49:46;;;;;;;42.05;28.25;;;16.20;90.30;;;;;;5002974;28;20048;-77
2021/07/27 03:52:12;;;;;;;34.03;25.35;;;16.20;90.20;;;;;;5006248;28;20496;-80
2021/07/27 03:54:38;;;;;;;35.42;27.80;;;16.20;90.30;;;;;;5007725;28;20451;-74
2021/07/27 03:57:04;;;;;;;33.38;26.92;;;16.30;90.30;;;;;;4998204;28;20125;-72
2021/07/27 03:59:31;;;;;;;34.72;26.58;;;16.20;90.30;;;;;;5025558;28;20049;-75
2021/07/27 04:01:56;;;;;;;31.80;25.13;;;16.20;90.40;;;;;;5028102;28;20029;-72
2021/07/27 04:04:22;;;;;;;32.17;25.67;;;16.30;90.30;;;;;;5028461;28;20048;-71
2021/07/27 04:06:48;;;;;;;40.70;27.67;;;16.30;90.30;;;;;;5023170;28;20068;-72
2021/07/27 04:09:15;;;;;;;35.10;26.88;;;16.30;90.30;;;;;;5024707;28;20041;-77
2021/07/27 04:11:41;;;;;;;35.47;25.65;;;16.30;90.40;;;;;;5029852;28;20065;-72
2021/07/27 04:14:07;;;;;;;38.28;29.20;;;16.40;90.30;;;;;;5026686;28;20034;-73
2021/07/27 04:16:37;;;;;;;38.65;28.45;;;16.40;90.20;;;;;;5024845;28;20034;-72
2021/07/27 04:19:02;;;;;;;42.05;28.35;;;16.30;90.30;;;;;;5026777;28;20049;-72
2021/07/27 04:21:28;;;;;;;34.42;26.55;;;16.30;90.50;;;;;;5029437;28;20397;-72
2021/07/27 04:23:57;;;;;;;36.65;28.58;;;16.30;90.50;;;;;;5027760;28;20037;-76
2021/07/27 04:26:23;;;;;;;38.30;27.60;;;16.40;90.30;;;;;;5027184;28;20539;-73
2021/07/27 04:28:48;;;;;;;36.30;26.63;;;16.30;90.40;;;;;;5028149;28;20041;-72
2021/07/27 04:31:18;;;;;;;35.40;26.95;;;16.30;90.50;;;;;;5029799;28;20026;-76
2021/07/27 04:33:44;;;;;;;32.65;26.67;;;16.40;90.40;;;;;;5038714;28;20080;-73
2021/07/27 04:36:10;;;;;;;40.10;27.98;;;16.40;90.40;;;;;;5029010;28;20047;-72
2021/07/27 04:38:36;;;;;;;34.92;28.30;;;16.40;90.40;;;;;;5022204;28;20108;-72
2021/07/27 04:41:05;;;;;;;42.05;28.95;;;16.50;90.40;;;;;;5010205;28;20040;-74
2021/07/27 04:43:31;;;;;;;40.58;28.70;;;16.50;90.40;;;;;;5004387;28;20039;-72
2021/07/27 04:46:00;;;;;;;42.20;28.48;;;16.50;90.30;;;;;;5009635;28;20045;-73
2021/07/27 04:48:26;;;;;;;35.65;27.27;;;16.50;90.30;;;;;;5003433;28;20057;-72
2021/07/27 04:50:52;;;;;;;37.00;26.33;;;16.60;90.30;;;;;;5008508;28;20753;-72
2021/07/27 04:53:24;;;;;;;38.53;28.20;;;16.60;90.30;;;;;;5010637;28;20441;-75
2021/07/27 04:55:51;;;;;;;36.55;29.50;;;16.60;90.20;;;;;;5013565;28;20136;-73
2021/07/27 04:58:17;;;;;;;42.30;29.17;;;16.70;90.00;;;;;;5008393;28;20077;-75
2021/07/27 05:00:43;;;;;;;36.15;28.13;;;16.70;89.80;;;;;;5007468;28;20037;-72
2021/07/27 05:03:08;;;;;;;37.60;28.77;;;16.70;89.80;;;;;;4997668;28;20037;-74
2021/07/27 05:05:34;;;;;;;38.72;28.77;;;16.80;89.90;;;;;;5003646;28;20057;-73
2021/07/27 05:08:00;;;;;;;35.97;27.67;;;16.90;89.80;;;;;;5012025;28;20031;-72
2021/07/27 05:10:26;;;;;;;40.67;31.08;;;17.00;89.70;;;;;;5028068;28;20040;-73
2021/07/27 05:12:51;;;;;;;39.22;29.92;;;17.10;89.60;;;;;;5027210;28;20041;-78
2021/07/27 05:15:17;;;;;;;38.80;30.00;;;17.10;89.40;;;;;;5026999;28;20060;-76
2021/07/27 05:17:44;;;;;;;36.92;28.70;;;17.10;89.20;;;;;;5031800;28;20116;-78
2021/07/27 05:20:11;;;;;;;39.33;28.67;;;17.10;89.40;;;;;;5031902;28;20033;-73
2021/07/27 05:22:36;;;;;;;38.25;28.45;;;17.10;89.50;;;;;;5030129;28;20056;-73
2021/07/27 05:25:03;;;;;;;39.08;30.63;;;17.20;89.50;;;;;;5025507;28;20033;-72
2021/07/27 05:27:33;;;;;;;38.03;29.25;;;17.20;89.50;;;;;;5028588;28;20039;-73
2021/07/27 05:29:59;;;;;;;42.85;29.48;;;17.20;89.50;;;;;;5026391;28;20049;-73
2021/07/27 05:32:26;;;;;;;42.60;30.23;;;17.20;89.60;;;;;;5028673;28;20343;-72
2021/07/27 05:34:52;;;;;;;39.05;29.02;;;17.20;89.60;;;;;;5027207;28;20033;-73
2021/07/27 05:37:18;;;;;;;37.63;28.77;;;17.20;89.60;;;;;;5019258;28;20052;-72
2021/07/27 05:39:44;;;;;;;39.30;30.58;;;17.20;89.50;;;;;;5026310;28;20037;-74
2021/07/27 05:42:10;;;;;;;38.17;29.60;;;17.30;89.70;;;;;;5032238;28;20163;-76
2021/07/27 05:44:36;;;;;;;38.20;29.35;;;17.40;89.50;;;;;;5027954;28;20068;-72
2021/07/27 05:47:02;;;;;;;36.65;28.58;;;17.50;89.50;;;;;;5027376;28;20060;-72
2021/07/27 05:49:28;;;;;;;40.47;29.02;;;17.50;89.20;;;;;;5026490;28;20033;-73
2021/07/27 05:51:55;;;;;;;37.08;26.67;;;17.60;89.20;;;;;;5031857;28;20060;-73
2021/07/27 05:54:22;;;;;;;38.55;27.88;;;17.60;89.30;;;;;;5025269;28;21091;-73
2021/07/27 05:56:48;;;;;;;34.08;28.65;;;17.70;89.20;;;;;;5026492;28;20516;-72
2021/07/27 05:59:17;;;;;;;35.45;28.75;;;17.70;88.80;;;;;;5024673;28;20037;-72
2021/07/27 06:01:43;;;;;;;38.50;28.80;;;17.80;88.90;;;;;;5019891;28;20037;-73
2021/07/27 06:04:09;;;;;;;38.85;29.17;;;17.80;88.70;;;;;;5020593;28;20400;-73
2021/07/27 06:06:35;;;;;;;37.47;27.52;;;17.90;88.60;;;;;;5030790;28;20045;-73
2021/07/27 06:09:03;;;;;;;32.60;27.15;;;17.80;88.40;;;;;;5019968;28;20076;-74
2021/07/27 06:11:30;;;;;;;39.33;28.42;;;17.90;88.40;;;;;;5006894;28;20083;-73
2021/07/27 06:13:56;;;;;;;38.83;28.38;;;18.00;88.30;;;;;;5004236;28;20496;-73
2021/07/27 06:16:22;;;;;;;38.60;28.63;;;18.10;88.30;;;;;;4997870;28;20120;-72
2021/07/27 06:18:47;;;;;;;36.90;27.23;;;18.10;88.00;;;;;;4998366;28;20121;-77
2021/07/27 06:21:13;;;;;;;33.63;26.88;;;18.20;87.80;;;;;;5002634;28;20046;-72
2021/07/27 06:23:39;;;;;;;34.95;27.33;;;18.20;87.50;;;;;;5023694;28;20030;-73
2021/07/27 06:26:05;;;;;;;39.20;27.15;;;18.30;87.20;;;;;;5021038;28;20038;-73
2021/07/27 06:28:31;;;;;;;33.97;26.17;;;18.20;87.00;;;;;;5025732;28;20054;-74
2021/07/27 06:30:57;;;;;;;36.55;27.20;;;18.30;87.10;;;;;;5025365;28;20037;-78
2021/07/27 06:33:23;;;;;;;34.38;27.55;;;18.20;86.90;;;;;;5027375;28;20085;-71
2021/07/27 06:35:55;;;;;;;37.00;27.20;;;18.10;87.20;;;;;;5025386;28;20361;-72
2021/07/27 06:38:20;;;;;;;36.00;27.38;;;18.10;87.40;;;;;;5021256;28;22158;-72
2021/07/27 06:40:46;;;;;;;34.17;26.50;;;18.10;87.80;;;;;;5024265;28;20056;-72
2021/07/27 06:43:12;;;;;;;40.70;28.35;;;18.10;87.80;;;;;;5024183;28;20052;-72
2021/07/27 06:45:37;;;;;;;39.83;28.52;;;18.10;87.90;;;;;;5021329;28;20084;-73
2021/07/27 06:48:03;;;;;;;36.95;27.90;;;18.10;88.00;;;;;;5028841;28;20416;-72
2021/07/27 06:50:29;;;;;;;32.53;26.08;;;18.10;88.10;;;;;;5012798;28;20045;-70
2021/07/27 06:52:55;;;;;;;40.08;28.27;;;18.10;88.20;;;;;;5003395;28;20508;-72
2021/07/27 06:55:20;;;;;;;34.42;27.25;;;18.10;88.10;;;;;;5009476;28;24725;-72
2021/07/27 06:57:46;;;;;;;38.97;28.95;;;18.20;88.00;;;;;;5001824;28;20042;-71
2021/07/27 07:00:13;;;;;;;34.15;26.50;;;18.20;87.70;;;;;;4999942;28;20474;-71
2021/07/27 07:02:38;;;;;;;36.22;27.75;;;18.10;87.90;;;;;;5002769;28;20042;-76
2021/07/27 07:05:04;;;;;;;36.90;28.20;;;18.20;87.90;;;;;;5005306;28;20042;-71
2021/07/27 07:07:30;;;;;;;37.95;27.85;;;18.20;88.00;;;;;;5002670;28;20042;-71
2021/07/27 07:09:55;;;;;;;36.08;26.42;;;18.20;88.00;;;;;;4997335;28;20045;-70
2021/07/27 07:12:23;;;;;;;40.65;27.33;;;18.30;88.00;;;;;;5000546;28;20132;-71
2021/07/27 07:14:54;;;;;;;36.17;26.88;;;18.20;88.10;;;;;;4997738;28;20123;-72
2021/07/27 07:17:19;;;;;;;36.03;27.33;;;18.30;88.20;;;;;;5000001;28;20046;-73
2021/07/27 07:19:45;;;;;;;37.63;29.10;;;18.30;88.30;;;;;;4999137;28;20081;-72
2021/07/27 07:22:11;;;;;;;40.95;29.23;;;18.20;88.60;;;;;;5002153;28;20401;-71
2021/07/27 07:24:36;;;;;;;36.28;27.65;;;18.20;88.80;;;;;;5005116;28;20026;-71
2021/07/27 07:27:02;;;;;;;36.85;26.73;;;18.20;89.20;;;;;;5001994;28;20052;-74
2021/07/27 07:29:28;;;;;;;38.90;28.90;;;18.30;89.30;;;;;;4999809;28;20378;-71
2021/07/27 07:31:53;;;;;;;38.47;29.38;;;18.40;89.40;;;;;;4997714;28;20045;-73
2021/07/27 07:34:19;;;;;;;38.58;29.77;;;18.50;89.70;;;;;;5021586;28;20507;-76
2021/07/27 07:36:45;;;;;;;39.00;28.40;;;18.50;89.40;;;;;;5004161;28;20077;-72
2021/07/27 07:39:10;;;;;;;38.72;29.65;;;18.60;89.50;;;;;;5008794;28;20508;-71
2021/07/27 07:41:36;;;;;;;39.15;28.33;;;18.80;89.30;;;;;;5004005;28;20109;-72
2021/07/27 07:44:02;;;;;;;37.35;27.55;;;18.90;89.10;;;;;;5000069;28;20038;-74
2021/07/27 07:46:27;;;;;;;33.45;26.48;;;19.00;88.50;;;;;;5008272;28;20073;-72
2021/07/27 07:48:53;;;;;;;35.88;28.05;;;19.10;88.80;;;;;;5015232;28;20420;-72
2021/07/27 07:51:19;;;;;;;35.83;27.33;;;19.20;88.40;;;;;;5024255;28;20029;-74
2021/07/27 07:53:44;;;;;;;37.30;28.83;;;19.30;88.50;;;;;;5028736;28;20030;-72
2021/07/27 07:56:10;;;;;;;33.58;24.95;;;19.40;88.10;;;;;;5022391;28;20048;-72
2021/07/27 07:58:36;;;;;;;34.90;27.17;;;19.40;88.00;;;;;;5022617;28;20046;-73
2021/07/27 08:01:05;;;;;;;32.60;25.45;;;19.50;87.70;;;;;;5025277;28;20030;-70
2021/07/27 08:03:32;;;;;;;35.47;25.67;;;19.50;87.80;;;;;;5006291;28;20053;-72
2021/07/27 08:05:58;;;;;;;29.67;23.02;;;19.60;87.10;;;;;;5012342;28;20081;-72
2021/07/27 08:08:23;;;;;;;29.77;22.95;;;19.70;87.10;;;;;;5012726;28;20061;-71
2021/07/27 08:10:49;;;;;;;30.58;22.40;;;19.80;86.60;;;;;;5025620;28;20146;-72
2021/07/27 08:13:15;;;;;;;25.35;20.40;;;19.90;86.20;;;;;;5021704;28;20041;-71
2021/07/27 08:15:40;;;;;;;26.02;19.33;;;19.90;84.50;;;;;;5028464;28;20041;-72
2021/07/27 08:18:06;;;;;;;27.25;19.27;;;19.90;84.90;;;;;;5025422;28;20064;-72
2021/07/27 08:20:32;;;;;;;27.60;17.83;;;20.10;84.20;;;;;;5032715;28;20401;-74
2021/07/27 08:22:59;;;;;;;23.67;16.92;;;20.10;82.70;;;;;;5030833;28;20061;-71
2021/07/27 08:25:24;;;;;;;29.65;18.48;;;20.20;82.60;;;;;;5029018;28;20084;-72
2021/07/27 08:27:50;;;;;;;22.88;18.33;;;20.30;83.10;;;;;;5025697;28;20034;-72
2021/07/27 08:30:17;;;;;;;26.00;17.70;;;20.30;83.10;;;;;;5022191;28;20037;-71
2021/07/27 08:32:51;;;;;;;17.33;13.52;;;20.40;82.00;;;;;;5025745;28;20041;-71
2021/07/27 08:35:19;;;;;;;19.80;14.30;;;20.50;81.70;;;;;;5022920;28;20516;-73
2021/07/27 08:37:45;;;;;;;19.30;14.82;;;20.60;81.30;;;;;;5020357;28;20053;-73
2021/07/27 08:40:13;;;;;;;23.77;15.90;;;20.50;80.60;;;;;;5029663;28;20041;-71
2021/07/27 08:42:41;;;;;;;18.52;14.75;;;20.50;80.00;;;;;;5034130;28;20099;-72
2021/07/27 08:45:08;;;;;;;22.25;15.57;;;20.50;80.70;;;;;;5026623;28;20033;-71
2021/07/27 08:47:34;;;;;;;22.05;15.38;;;20.50;80.60;;;;;;5027872;28;20400;-72
2021/07/27 08:50:01;;;;;;;19.50;13.82;;;20.40;80.40;;;;;;5024389;28;20029;-72
2021/07/27 08:52:28;;;;;;;20.80;14.45;;;20.40;79.80;;;;;;5027672;28;20044;-71
2021/07/27 08:54:53;;;;;;;18.52;12.27;;;20.60;80.20;;;;;;5028956;28;20061;-71
2021/07/27 08:57:20;;;;;;;18.63;12.27;;;20.60;80.10;;;;;;5026433;28;20397;-72
2021/07/27 08:59:46;;;;;;;21.75;14.75;;;20.70;79.40;;;;;;5029889;28;20029;-72
2021/07/27 09:02:12;;;;;;;17.83;13.65;;;20.90;79.00;;;;;;5025125;28;20038;-72
2021/07/27 09:04:37;;;;;;;19.08;14.25;;;21.00;78.40;;;;;;5028381;28;20038;-72
2021/07/27 09:07:05;;;;;;;20.08;13.80;;;21.10;78.50;;;;;;5027198;28;20480;-73
2021/07/27 09:09:32;;;;;;;17.20;12.80;;;21.00;77.80;;;;;;5023381;28;20465;-73
2021/07/27 09:11:59;;;;;;;24.45;14.73;;;21.10;78.60;;;;;;5024526;28;20063;-73
2021/07/27 09:14:26;;;;;;;19.38;14.43;;;21.10;78.00;;;;;;5018575;28;20034;-73
2021/07/27 09:16:57;;;;;;;20.30;13.98;;;20.90;77.90;;;;;;5027522;28;20042;-75
2021/07/27 09:19:23;;;;;;;21.23;14.82;;;20.70;79.10;;;;;;5023840;28;20076;-74
2021/07/27 09:21:49;;;;;;;18.60;13.15;;;20.60;79.20;;;;;;5025949;28;20042;-72
2021/07/27 09:24:21;;;;;;;22.05;13.38;;;20.50;80.00;;;;;;5027867;28;20045;-72
2021/07/27 09:27:05;;;;;;;18.02;13.20;;;20.50;80.60;;;;;;5032236;28;20140;-72
2021/07/27 09:29:32;;;;;;;21.08;13.73;;;20.30;80.80;;;;;;5021478;28;20052;-70
2021/07/27 09:31:59;;;;;;;20.50;13.70;;;20.40;81.20;;;;;;5025274;28;20051;-70
2021/07/27 09:34:29;;;;;;;20.95;13.02;;;20.40;80.70;;;;;;5024724;28;20507;-75
2021/07/27 09:37:06;;;;;;;19.88;13.32;;;20.60;80.80;;;;;;5019521;28;20374;-73
2021/07/27 09:39:33;;;;;;;21.77;13.13;;;20.70;81.10;;;;;;5030080;28;20116;-72
2021/07/27 09:42:00;;;;;;;20.08;11.93;;;20.80;79.50;;;;;;5023524;28;20120;-72
2021/07/27 09:44:29;;;;;;;18.02;11.60;;;20.80;79.10;;;;;;5025971;28;20041;-72
2021/07/27 09:46:57;;;;;;;21.33;12.50;;;21.00;78.40;;;;;;5019014;28;20061;-76
2021/07/27 09:49:23;;;;;;;18.50;13.32;;;20.80;78.30;;;;;;5020229;28;20128;-77
2021/07/27 09:51:49;;;;;;;19.95;11.90;;;21.00;78.40;;;;;;5027759;28;20809;-72
2021/07/27 09:54:16;;;;;;;22.98;13.63;;;21.20;78.10;;;;;;5034709;28;20131;-71
2021/07/27 09:56:44;;;;;;;24.85;13.05;;;21.30;77.40;;;;;;5024851;28;20128;-73
2021/07/27 09:59:10;;;;;;;21.42;13.18;;;21.30;77.20;;;;;;5033575;28;20208;-75
2021/07/27 10:01:39;;;;;;;20.90;14.05;;;21.40;76.40;;;;;;5030682;28;20128;-71
2021/07/27 10:04:05;;;;;;;18.88;13.40;;;21.60;76.90;;;;;;5028056;28;20030;-73
2021/07/27 10:06:36;;;;;;;22.00;12.25;;;21.90;75.90;;;;;;5030584;28;20049;-73
2021/07/27 10:09:03;;;;;;;19.15;12.50;;;22.20;74.80;;;;;;5023748;28;20029;-73
2021/07/27 10:11:42;;;;;;;18.45;10.65;;;22.70;73.10;;;;;;5023012;28;20061;-72
2021/07/27 10:14:10;;;;;;;23.00;11.65;;;23.00;71.00;;;;;;5025439;28;20488;-72
2021/07/27 10:16:36;;;;;;;16.58;11.45;;;23.00;69.80;;;;;;5014834;28;20046;-72
2021/07/27 10:19:21;;;;;;;16.52;10.52;;;22.90;70.40;;;;;;5006928;28;20045;-73
2021/07/27 10:21:49;;;;;;;21.23;11.27;;;22.70;71.00;;;;;;5011801;28;20073;-72
2021/07/27 10:24:22;;;;;;;18.10;11.35;;;22.70;71.30;;;;;;5023891;28;20037;-72
2021/07/27 10:26:48;;;;;;;19.70;10.75;;;22.80;70.70;;;;;;5029529;28;20128;-72
2021/07/27 10:29:14;;;;;;;16.17;10.30;;;23.00;70.00;;;;;;5023300;28;20100;-74
2021/07/27 10:31:45;;;;;;;17.45;10.68;;;23.20;71.00;;;;;;5022609;28;20060;-69
2021/07/27 10:34:12;;;;;;;18.23;11.25;;;23.20;69.80;;;;;;5021291;28;20033;-73
2021/07/27 10:36:39;;;;;;;15.90;10.23;;;23.00;69.40;;;;;;5026521;28;20049;-71
2021/07/27 10:39:17;;;;;;;19.10;10.75;;;23.10;70.80;;;;;;5020793;28;20210;-74
2021/07/27 10:41:42;;;;;;;20.55;10.60;;;23.20;70.80;;;;;;5021479;28;20033;-72
2021/07/27 10:44:11;;;;;;;19.95;11.98;;;23.40;70.10;;;;;;5025718;28;20037;-73
2021/07/27 10:46:39;;;;;;;16.95;11.65;;;23.50;69.90;;;;;;5028274;28;20053;-71
2021/07/27 10:49:05;;;;;;;17.23;11.18;;;23.40;70.40;;;;;;5028510;28;20116;-71
2021/07/27 10:51:37;;;;;;;17.25;11.35;;;23.40;70.60;;;;;;5023153;28;20046;-71
2021/07/27 10:54:04;;;;;;;19.83;12.10;;;23.60;69.00;;;;;;5023658;28;20057;-71
2021/07/27 10:56:31;;;;;;;16.38;11.77;;;23.60;69.70;;;;;;5031470;28;20037;-71
2021/07/27 10:58:58;;;;;;;15.30;10.25;;;23.80;69.30;;;;;;5037949;28;20058;-72
2021/07/27 11:01:32;;;;;;;16.10;10.77;;;24.00;68.80;;;;;;5030219;28;20373;-74
2021/07/27 11:04:08;;;;;;;19.48;11.32;;;24.10;67.30;;;;;;5027654;28;20129;-71
2021/07/27 11:06:34;;;;;;;21.35;11.63;;;24.10;68.90;;;;;;5026592;28;20045;-70
2021/07/27 11:09:00;;;;;;;21.08;11.73;;;23.90;67.60;;;;;;5026752;28;20030;-70
2021/07/27 11:11:26;;;;;;;16.63;11.10;;;23.90;67.60;;;;;;5026110;28;20042;-72
2021/07/27 11:13:53;;;;;;;21.85;12.13;;;24.00;68.40;;;;;;5026200;28;20420;-72
2021/07/27 11:16:19;;;;;;;16.25;11.35;;;24.30;67.50;;;;;;5027044;28;20041;-74
2021/07/27 11:18:46;;;;;;;21.80;11.18;;;24.20;67.30;;;;;;5025496;28;20065;-74
2021/07/27 11:21:12;;;;;;;14.10;10.85;;;24.40;66.30;;;;;;5027834;28;20034;-70
2021/07/27 11:23:39;;;;;;;15.38;10.88;;;24.50;65.80;;;;;;5018511;28;20425;-71
2021/07/27 11:26:04;;;;;;;18.25;10.88;;;24.70;66.30;;;;;;5003026;28;20035;-71
2021/07/27 11:28:38;;;;;;;18.95;11.80;;;24.70;65.20;;;;;;5006239;28;20109;-71
2021/07/27 11:31:16;;;;;;;21.00;12.27;;;24.80;64.70;;;;;;4993307;28;20046;-71
2021/07/27 11:33:52;;;;;;;21.00;13.10;;;24.30;65.30;;;;;;4995379;28;20355;-72
2021/07/27 11:36:25;;;;;;;21.73;14.07;;;24.20;65.50;;;;;;4996930;28;20413;-71
2021/07/27 11:39:02;;;;;;;19.50;15.25;;;24.20;66.00;;;;;;4998699;28;20112;-71
2021/07/27 11:41:28;;;;;;;22.85;16.63;;;24.20;64.90;;;;;;5022340;28;20091;-71
2021/07/27 11:43:57;;;;;;;24.38;17.23;;;24.10;66.20;;;;;;5031494;28;20045;-74
2021/07/27 11:46:30;;;;;;;24.85;17.08;;;24.10;65.80;;;;;;5027243;28;20131;-72
2021/07/27 11:48:56;;;;;;;25.90;17.48;;;24.00;65.50;;;;;;5029381;28;20044;-71
2021/07/27 11:51:32;;;;;;;20.80;16.30;;;24.20;65.10;;;;;;5025996;28;20041;-73
2021/07/27 11:53:57;;;;;;;23.05;16.15;;;24.90;65.10;;;;;;5021828;28;20573;-72
2021/07/27 11:56:24;;;;;;;22.13;16.63;;;25.30;64.10;;;;;;5024571;28;20109;-72
2021/07/27 11:59:02;;;;;;;21.35;15.50;;;25.30;63.00;;;;;;5026916;28;20124;-73
2021/07/27 12:01:35;;;;;;;18.60;14.63;;;25.20;62.20;;;;;;5028236;28;20364;-72
2021/07/27 12:04:01;;;;;;;19.92;15.70;;;24.90;62.20;;;;;;5023769;28;20025;-74
2021/07/27 12:06:26;;;;;;;19.67;15.07;;;24.50;62.70;;;;;;5025459;28;20045;-71
2021/07/27 12:08:52;;;;;;;19.27;14.77;;;24.30;63.90;;;;;;5023598;28;20473;-73
2021/07/27 12:11:18;;;;;;;18.38;14.48;;;24.30;64.60;;;;;;5019435;28;20424;-70
2021/07/27 12:13:43;;;;;;;21.13;16.38;;;24.10;65.90;;;;;;5020168;28;20480;-71
2021/07/27 12:16:09;;;;;;;20.70;14.30;;;23.80;66.20;;;;;;5023609;28;20044;-72
2021/07/27 12:18:34;;;;;;;18.20;14.93;;;23.70;66.60;;;;;;5023590;28;20021;-72
2021/07/27 12:21:00;;;;;;;18.15;14.90;;;23.60;67.00;;;;;;5030601;28;20563;-71
2021/07/27 12:23:26;;;;;;;18.92;14.55;;;23.60;66.60;;;;;;5027375;28;20033;-74
2021/07/27 12:25:51;;;;;;;19.77;13.80;;;23.90;66.40;;;;;;5023861;28;20092;-71
2021/07/27 12:28:17;;;;;;;17.48;12.23;;;24.10;66.00;;;;;;5025327;28;20112;-70
2021/07/27 12:30:43;;;;;;;20.33;13.55;;;24.20;64.00;;;;;;5023772;28;20026;-70
2021/07/27 12:33:11;;;;;;;16.15;12.73;;;24.20;62.70;;;;;;5022912;28;20034;-71
2021/07/27 12:35:37;;;;;;;14.85;12.57;;;24.30;62.90;;;;;;5018811;28;20492;-71
2021/07/27 12:38:06;;;;;;;17.38;12.93;;;24.30;63.00;;;;;;5030350;28;20436;-71
2021/07/27 12:40:32;;;;;;;16.17;12.27;;;24.10;63.40;;;;;;5018488;28;20424;-70
2021/07/27 12:42:57;;;;;;;17.13;11.57;;;24.10;63.60;;;;;;5028890;28;20449;-71
2021/07/27 12:45:23;;;;;;;14.55;11.70;;;24.20;63.10;;;;;;5016495;28;20064;-75
2021/07/27 12:47:48;;;;;;;17.00;12.18;;;24.30;63.30;;;;;;5006702;28;20491;-74
2021/07/27 12:50:14;;;;;;;15.40;11.35;;;24.40;61.60;;;;;;5028247;28;20084;-71
2021/07/27 12:52:40;;;;;;;15.45;11.23;;;24.20;61.50;;;;;;5027181;28;20030;-72
2021/07/27 12:55:06;;;;;;;14.32;10.40;;;24.00;61.60;;;;;;5027800;28;20044;-70